Cupar, Canada
Current Conditions -  °F | °C
As of 6:00 PM on Saturday 25 Oct 2014 (Local Time) from CYQR Reporting Station
Broken Clouds Broken Clouds  
Wind Chill: 44°   Ceiling: 24000
Heat Index: 48°   Visibility: 15mi
Dew Point: 30°   Wind: 9mph
Humidity: 50%   Direction: 140°SE
Pressure: 29.9"   Gusts: NA
Location:  50.95°N, 104.2°W
Report Text: CYQR 260000Z 14008KT 15SM BKN240 09/M01 A2990 RMK CI6 CC ASOCTD SLP150
Loading
Personal Weather Stations






























Interactive Weather Map
Tropical Storm Tracking
New forecast layout! Learn more

10-Day Weather Forecast

Advertisements
Track Severe Weather on mobile